Time;durP1;ratioP1;P1;durP2;ratioP2;P2;SDS_P1;SDS_P2;PMS_P1;PMS_P2;Temp;Humidity;BMP_temperature;BMP_pressure;BME280_temperature;BME280_humidity;BME280_pressure;Samples;Min_cycle;Max_cycle;Signal;HPM_P1;HPM_P2
2023/04/02 00:00:09;;;;;;;26.20;14.85;;;;;;;5.55;100.00;100942.25;5074578;28;20025;-69
2023/04/02 00:03:04;;;;;;;26.20;14.90;;;;;;;5.49;100.00;100948.22;5071621;28;20471;-69
2023/04/02 00:05:50;;;;;;;26.00;14.57;;;;;;;5.51;100.00;100945.66;5070813;28;20079;-69
2023/04/02 00:08:22;;;;;;;25.48;14.32;;;;;;;5.56;100.00;100954.50;5073313;28;20129;-69
2023/04/02 00:10:47;;;;;;;;;;;;;;;5.53;100.00;100947.47;5074817;28;20475;-69
2023/04/02 00:13:13;;;;;;;24.55;13.30;;;;;;;5.56;100.00;100959.75;5074676;28;19912;-69
2023/04/02 00:15:40;;;;;;;25.27;14.18;;;;;;;5.48;100.00;100963.91;5074304;28;20052;-70
2023/04/02 00:18:06;;;;;;;25.33;14.43;;;;;;;5.45;100.00;100964.72;5074089;28;20089;-69
2023/04/02 00:20:37;;;;;;;25.88;15.23;;;;;;;5.49;100.00;100973.53;5074344;28;20429;-70
2023/04/02 00:23:03;;;;;;;27.38;16.17;;;;;;;5.46;100.00;100970.84;5074079;28;20029;-69
2023/04/02 00:25:34;;;;;;;26.90;16.30;;;;;;;5.40;100.00;100975.09;5074027;28;20039;-69
2023/04/02 00:28:00;;;;;;;27.67;16.45;;;;;;;5.40;100.00;100984.66;5070652;28;20039;-69
2023/04/02 00:30:25;;;;;;;27.40;16.73;;;;;;;5.39;100.00;100990.78;5073748;28;20040;-70
2023/04/02 00:32:51;;;;;;;27.27;16.27;;;;;;;5.34;100.00;100979.25;5074117;28;20040;-69
2023/04/02 00:35:21;;;;;;;27.27;16.50;;;;;;;5.35;100.00;100995.03;5074035;28;20360;-69
2023/04/02 00:37:48;;;;;;;27.80;16.50;;;;;;;5.35;100.00;100995.03;5073962;28;20379;-70
2023/04/02 00:40:24;;;;;;;27.15;16.98;;;;;;;5.31;100.00;101002.78;5073994;28;20025;-69
2023/04/02 00:42:52;;;;;;;27.42;16.83;;;;;;;5.27;100.00;101003.53;5073755;28;20471;-69
2023/04/02 00:45:24;;;;;;;26.80;16.90;;;;;;;5.28;100.00;101002.69;5073750;28;20036;-70
2023/04/02 00:47:50;;;;;;;28.02;17.92;;;;;;;5.31;100.00;101010.63;5073666;28;20556;-70
2023/04/02 00:50:38;;;;;;;27.02;16.90;;;;;;;5.27;100.00;101016.63;5071751;28;20123;-70
2023/04/02 00:53:11;;;;;;;26.10;16.25;;;;;;;5.22;100.00;101021.75;5070519;28;20020;-69
2023/04/02 00:55:40;;;;;;;26.58;16.35;;;;;;;5.18;100.00;101015.50;5073418;28;20047;-69
2023/04/02 00:58:26;;;;;;;27.00;17.00;;;;;;;5.20;100.00;101021.69;5073911;28;20077;-69
2023/04/02 01:00:53;;;;;;;27.23;17.27;;;;;;;5.21;100.00;101028.72;5073580;28;20081;-69
2023/04/02 01:03:18;;;;;;;28.40;17.45;;;;;;;5.18;100.00;101032.97;5073328;28;20498;-71
2023/04/02 01:05:50;;;;;;;27.75;17.00;;;;;;;5.15;100.00;101038.13;5071915;28;20040;-70
2023/04/02 01:08:20;;;;;;;27.15;17.48;;;;;;;5.19;100.00;101040.88;5073411;28;20024;-69
2023/04/02 01:11:04;;;;;;;28.10;17.77;;;;;;;5.23;100.00;101044.50;5073132;28;20089;-71
2023/04/02 01:13:50;;;;;;;27.67;17.00;;;;;;;5.21;100.00;101049.69;5069468;28;20237;-71
2023/04/02 01:16:46;;;;;;;28.38;17.40;;;;;;;5.24;100.00;101055.03;5071596;28;20059;-71
2023/04/02 01:19:30;;;;;;;28.92;18.48;;;;;;;5.22;100.00;101059.31;5071160;28;20035;-71
2023/04/02 01:22:05;;;;;;;29.00;18.40;;;;;;;5.19;100.00;101059.22;5073175;28;20027;-71
2023/04/02 01:24:33;;;;;;;28.95;19.13;;;;;;;5.21;100.00;101061.91;5069529;28;20372;-71
2023/04/02 01:27:02;;;;;;;28.92;18.15;;;;;;;5.16;100.00;101064.38;5069410;28;20016;-72
2023/04/02 01:29:31;;;;;;;28.98;18.88;;;;;;;5.19;100.00;101067.09;5069035;28;20049;-72
2023/04/02 01:32:04;;;;;;;29.17;19.38;;;;;;;5.18;100.00;101067.94;5068943;28;20047;-72
2023/04/02 01:34:31;;;;;;;29.85;19.20;;;;;;;5.18;100.00;101073.16;5069194;28;20543;-71
2023/04/02 01:37:15;;;;;;;28.35;18.52;;;;;;;5.17;100.00;101075.75;5071504;28;20025;-71
2023/04/02 01:39:48;;;;;;;28.67;19.20;;;;;;;5.14;100.00;101088.75;5070635;28;20029;-71
2023/04/02 01:42:36;;;;;;;29.45;19.17;;;;;;;5.18;100.00;101095.88;5072903;28;20464;-72
2023/04/02 01:45:11;;;;;;;29.52;19.50;;;;;;;5.21;100.00;101095.97;5069601;28;20021;-71
2023/04/02 01:47:37;;;;;;;28.77;19.75;;;;;;;4.99;100.00;101111.03;5070050;28;20032;-72
2023/04/02 01:50:20;;;;;;;28.35;18.85;;;;;;;4.92;100.00;101109.06;5072636;28;20044;-71
2023/04/02 01:52:50;;;;;;;28.35;18.95;;;;;;;4.89;100.00;101115.13;5072668;28;20028;-71
2023/04/02 01:55:24;;;;;;;28.00;18.27;;;;;;;4.93;100.00;101123.06;5072641;28;20095;-71
2023/04/02 01:57:52;;;;;;;27.85;18.48;;;;;;;4.88;100.00;101121.19;5072783;28;20021;-71
2023/04/02 02:00:19;;;;;;;26.70;16.75;;;;;;;4.87;100.00;101129.00;5072491;28;20561;-71
2023/04/02 02:02:49;;;;;;;26.20;16.80;;;;;;;4.84;100.00;101127.16;5071555;28;20395;-71
2023/04/02 02:05:18;;;;;;;26.33;16.58;;;;;;;4.77;100.00;101125.19;5072350;28;20028;-72
2023/04/02 02:07:43;;;;;;;26.30;16.50;;;;;;;4.80;100.00;101129.63;5072706;28;20051;-71
2023/04/02 02:10:14;;;;;;;26.15;15.50;;;;;;;4.78;100.00;101131.34;5072527;28;20487;-71
2023/04/02 02:12:42;;;;;;;24.92;15.25;;;;;;;4.70;100.00;101142.44;5072436;28;20036;-71
2023/04/02 02:15:15;;;;;;;25.38;15.15;;;;;;;4.75;100.00;101139.97;5072630;28;20021;-70
2023/04/02 02:17:41;;;;;;;23.83;14.55;;;;;;;4.65;100.00;101146.63;5072338;28;20111;-70
2023/04/02 02:20:09;;;;;;;23.08;12.95;;;;;;;4.68;100.00;101151.97;5072307;28;20111;-70
2023/04/02 02:22:38;;;;;;;23.63;12.82;;;;;;;4.60;100.00;101153.47;5072589;28;20032;-72
2023/04/02 02:25:14;;;;;;;23.13;13.10;;;;;;;4.61;100.00;101160.44;5072464;28;20028;-70
2023/04/02 02:27:45;;;;;;;24.02;13.40;;;;;;;4.63;100.00;101168.34;5072328;28;20115;-71
2023/04/02 02:30:25;;;;;;;22.55;12.00;;;;;;;4.68;100.00;101174.66;5072045;28;20091;-70
2023/04/02 02:33:24;;;;;;;22.52;11.75;;;;;;;4.58;100.00;101176.06;5072157;28;20031;-69
2023/04/02 02:35:53;;;;;;;21.30;10.98;;;;;;;4.58;100.00;101183.03;5062084;28;20076;-70
2023/04/02 02:38:22;;;;;;;21.45;10.93;;;;;;;4.49;100.00;101186.22;5072089;28;20024;-70
2023/04/02 02:40:52;;;;;;;21.20;10.38;;;;;;;4.52;100.00;101181.09;5072411;28;20032;-71
2023/04/02 02:43:18;;;;;;;21.15;10.30;;;;;;;4.49;100.00;101192.34;5072102;28;20021;-71
2023/04/02 02:45:46;;;;;;;21.02;10.43;;;;;;;4.52;100.00;101200.31;5071988;28;20158;-70
2023/04/02 02:48:15;;;;;;;20.90;10.15;;;;;;;4.47;100.00;101196.66;5072305;28;20027;-70
2023/04/02 02:50:41;;;;;;;22.00;10.82;;;;;;;4.47;100.00;101206.22;5072048;28;20020;-70
2023/04/02 02:53:18;;;;;;;21.20;10.30;;;;;;;4.42;100.00;101205.19;5070787;28;20036;-70
2023/04/02 02:55:45;;;;;;;21.55;10.75;;;;;;;4.44;100.00;101214.88;5072051;28;20032;-72
2023/04/02 02:58:26;;;;;;;21.45;11.13;;;;;;;4.51;100.00;101222.13;5072288;28;20395;-70
2023/04/02 03:00:52;;;;;;;21.20;10.75;;;;;;;4.47;100.00;101214.97;5072448;28;20024;-70
2023/04/02 03:03:21;;;;;;;21.77;11.35;;;;;;;4.49;100.00;101222.88;5070778;28;20047;-70
2023/04/02 03:05:53;;;;;;;22.73;12.15;;;;;;;4.48;100.00;101224.59;5071838;28;20020;-70
2023/04/02 03:08:27;;;;;;;24.35;13.40;;;;;;;4.50;100.00;101238.66;5072050;28;20020;-70
2023/04/02 03:11:01;;;;;;;24.88;14.27;;;;;;;4.51;100.00;101237.81;5071917;28;20482;-70
2023/04/02 03:13:37;;;;;;;24.50;14.85;;;;;;;4.48;100.00;101236.81;5073128;28;20056;-70
2023/04/02 03:16:40;;;;;;;24.90;15.02;;;;;;;4.51;100.00;101253.53;5072047;28;20024;-71
2023/04/02 03:19:37;;;;;;;26.17;15.75;;;;;;;4.53;100.00;101259.69;5053759;28;20123;-70
2023/04/02 03:22:22;;;;;;;24.40;15.18;;;;;;;4.42;100.00;101268.00;5072000;28;20055;-72
2023/04/02 03:25:10;;;;;;;24.90;15.00;;;;;;;4.34;100.00;101275.59;5074096;28;20024;-70
2023/04/02 03:27:40;;;;;;;25.20;14.82;;;;;;;4.38;100.00;101281.81;5072417;28;20032;-70
2023/04/02 03:30:32;;;;;;;24.73;15.27;;;;;;;4.29;100.00;101282.38;5074943;28;20445;-69
2023/04/02 03:33:02;;;;;;;25.92;15.90;;;;;;;4.29;100.00;101298.06;5069487;28;20040;-69
2023/04/02 03:35:36;;;;;;;25.83;15.60;;;;;;;4.27;100.00;101295.41;5075367;28;20432;-70
2023/04/02 03:38:43;;;;;;;25.98;15.77;;;;;;;4.29;100.00;101303.31;5071342;28;20498;-69
2023/04/02 03:41:08;;;;;;;25.45;15.80;;;;;;;4.25;100.00;101311.88;5066843;28;20491;-69
2023/04/02 03:43:40;;;;;;;26.33;16.08;;;;;;;4.21;100.00;101317.81;5074984;28;20082;-69
2023/04/02 03:46:35;;;;;;;26.77;14.82;;;;;;;4.25;100.00;101317.13;5074818;28;20387;-70
2023/04/02 03:49:17;;;;;;;24.27;14.55;;;;;;;4.22;100.00;101332.69;5071501;28;20029;-69
2023/04/02 03:51:58;;;;;;;24.48;13.88;;;;;;;4.17;100.00;101335.16;5072653;28;20406;-69
2023/04/02 03:54:23;;;;;;;24.27;13.98;;;;;;;4.15;100.00;101342.03;5075026;28;20039;-69
2023/04/02 03:56:52;;;;;;;23.48;13.50;;;;;;;4.10;100.00;101344.47;5074942;28;20059;-69
2023/04/02 03:59:41;;;;;;;24.48;13.02;;;;;;;4.16;100.00;101347.31;5074624;28;20031;-69
2023/04/02 04:02:25;;;;;;;24.33;13.70;;;;;;;4.09;100.00;101352.28;5071950;28;20056;-69
2023/04/02 04:04:53;;;;;;;24.25;14.05;;;;;;;4.00;100.00;101363.28;5074777;28;20063;-69
2023/04/02 04:07:27;;;;;;;23.90;12.77;;;;;;;4.00;100.00;101365.88;5073204;28;20047;-70
2023/04/02 04:09:54;;;;;;;25.10;13.98;;;;;;;3.95;100.00;101359.59;5074649;28;20490;-70
2023/04/02 04:12:24;;;;;;;24.38;14.73;;;;;;;3.94;100.00;101371.75;5073318;28;20445;-70
2023/04/02 04:14:57;;;;;;;25.40;15.00;;;;;;;3.97;100.00;101378.84;5074300;28;20495;-70
2023/04/02 04:17:28;;;;;;;26.27;15.38;;;;;;;4.01;100.00;101375.53;5074295;28;20043;-72
2023/04/02 04:20:07;;;;;;;25.63;15.55;;;;;;;3.97;100.00;101378.84;5074424;28;20132;-71
2023/04/02 04:22:33;;;;;;;26.08;16.25;;;;;;;4.00;100.00;101392.06;5070907;28;20023;-70
2023/04/02 04:25:32;;;;;;;26.00;16.00;;;;;;;3.97;100.00;101400.66;5073396;28;20029;-69
2023/04/02 04:28:20;;;;;;;26.30;16.02;;;;;;;3.93;100.00;101404.00;5070657;28;20060;-69
2023/04/02 04:30:58;;;;;;;26.38;16.60;;;;;;;3.93;100.00;101413.56;5072374;28;20044;-70
2023/04/02 04:33:33;;;;;;;25.83;15.57;;;;;;;3.95;100.00;101417.16;5074109;28;20047;-70
2023/04/02 04:36:01;;;;;;;25.65;15.27;;;;;;;3.92;100.00;101432.72;5069802;28;20025;-70
2023/04/02 04:38:33;;;;;;;24.23;13.43;;;;;;;3.89;100.00;101427.34;5073811;28;20479;-70
2023/04/02 04:41:04;;;;;;;24.27;13.70;;;;;;;3.79;100.00;101441.78;5074250;28;20376;-70
2023/04/02 04:43:53;;;;;;;24.05;13.10;;;;;;;3.76;100.00;101442.53;5069937;28;20501;-70
2023/04/02 04:46:31;;;;;;;23.05;12.15;;;;;;;3.71;100.00;101444.06;5066057;28;20127;-70
2023/04/02 04:49:07;;;;;;;22.75;11.77;;;;;;;3.66;100.00;101446.50;5073724;28;20025;-70
2023/04/02 04:51:41;;;;;;;22.15;11.50;;;;;;;3.63;100.00;101461.16;5069975;28;20024;-69
2023/04/02 04:54:14;;;;;;;23.58;11.48;;;;;;;3.66;100.00;101471.75;5070465;28;20028;-71
2023/04/02 04:56:45;;;;;;;21.92;11.70;;;;;;;3.71;100.00;101469.34;5073543;28;20024;-70
2023/04/02 04:59:22;;;;;;;21.95;11.45;;;;;;;3.62;100.00;101475.94;5072415;28;20077;-69
2023/04/02 05:02:04;;;;;;;21.92;11.05;;;;;;;3.66;100.00;101477.88;5073418;28;20468;-70
2023/04/02 05:04:35;;;;;;;23.13;12.10;;;;;;;3.62;100.00;101481.19;5069415;28;20028;-70
2023/04/02 05:07:09;;;;;;;21.85;10.95;;;;;;;3.67;100.00;101484.00;5069419;28;20020;-70
2023/04/02 05:09:43;;;;;;;22.42;11.63;;;;;;;3.58;100.00;101492.34;5069926;28;20047;-69
2023/04/02 05:12:20;;;;;;;23.40;11.90;;;;;;;3.55;100.00;101496.53;5073669;28;20394;-69
2023/04/02 05:15:07;;;;;;;23.00;11.77;;;;;;;3.49;100.00;101505.94;5073335;28;20037;-69
2023/04/02 05:17:41;;;;;;;22.95;12.48;;;;;;;3.51;100.00;101513.84;5069724;28;20027;-70
2023/04/02 05:20:28;;;;;;;22.48;12.23;;;;;;;3.53;100.00;101509.56;5069955;28;20035;-70
2023/04/02 05:22:56;;;;;;;21.77;11.07;;;;;;;3.46;100.00;101511.00;5073272;28;20528;-70
2023/04/02 05:25:25;;;;;;;22.02;11.23;;;;;;;3.51;100.00;101516.44;5073183;28;20099;-69
2023/04/02 05:28:02;;;;;;;23.23;11.35;;;;;;;3.46;100.00;101517.94;5072894;28;20162;-70
2023/04/02 05:30:27;;;;;;;22.30;11.00;;;;;;;3.41;100.00;101528.22;5072980;28;20063;-69
2023/04/02 05:33:03;;;;;;;22.02;11.05;;;;;;;3.42;100.00;101530.00;5072782;28;20029;-69
2023/04/02 05:35:33;;;;;;;22.35;11.32;;;;;;;3.47;100.00;101532.81;5072693;28;20027;-69
2023/04/02 05:38:00;;;;;;;22.30;11.45;;;;;;;3.47;100.00;101538.94;5072674;28;20024;-69
2023/04/02 05:40:35;;;;;;;21.90;11.48;;;;;;;3.48;100.00;101550.25;5072972;28;20032;-69
2023/04/02 05:43:03;;;;;;;21.90;11.48;;;;;;;3.46;100.00;101550.19;5068805;28;20103;-69
2023/04/02 05:45:34;;;;;;;22.40;11.48;;;;;;;3.52;100.00;101548.69;5072619;28;20554;-69
2023/04/02 05:48:06;;;;;;;22.67;11.93;;;;;;;3.51;100.00;101550.44;5068706;28;20036;-69
2023/04/02 05:50:39;;;;;;;22.83;12.38;;;;;;;3.51;100.00;101557.38;5068969;28;20103;-69
2023/04/02 05:53:22;;;;;;;22.55;12.77;;;;;;;3.52;100.00;101567.88;5069279;28;20021;-69
2023/04/02 05:55:52;;;;;;;23.27;12.90;;;;;;;3.52;100.00;101567.00;5071011;28;20021;-69
2023/04/02 05:58:26;;;;;;;23.05;12.80;;;;;;;3.52;100.00;101575.72;5072642;28;20052;-69
2023/04/02 06:01:29;;;;;;;23.20;12.23;;;;;;;3.55;100.00;101582.81;5072484;28;20035;-69
2023/04/02 06:04:11;;;;;;;23.65;12.70;;;;;;;3.54;100.00;101588.88;5071955;28;20036;-69
2023/04/02 06:06:40;;;;;;;23.60;13.40;;;;;;;3.54;100.00;101597.63;5069303;28;20032;-69
2023/04/02 06:09:13;;;;;;;25.17;14.50;;;;;;;3.53;100.00;101594.94;5072447;28;20483;-69
2023/04/02 06:11:41;;;;;;;;;;;;;;;3.54;100.00;101609.78;5071796;28;20025;-69
2023/04/02 06:14:15;;;;;;;25.13;15.40;;;;;;;3.55;100.00;101608.97;5072694;28;20316;-69
2023/04/02 06:16:44;;;;;;;27.15;15.80;;;;;;;3.52;100.00;101609.72;5072311;28;20021;-69
2023/04/02 06:19:24;;;;;;;25.60;15.05;;;;;;;3.47;100.00;101624.31;5072331;28;20067;-70
2023/04/02 06:21:56;;;;;;;25.90;15.02;;;;;;;3.40;100.00;101630.97;5072498;28;20036;-69
2023/04/02 06:24:26;;;;;;;24.95;14.35;;;;;;;3.39;100.00;101626.56;5072590;28;20107;-70
2023/04/02 06:27:04;;;;;;;24.65;13.45;;;;;;;3.39;100.00;101639.63;5072179;28;20028;-70
2023/04/02 06:29:39;;;;;;;24.90;14.10;;;;;;;3.38;100.00;101640.47;5072152;28;20079;-70
2023/04/02 06:32:10;;;;;;;23.75;13.75;;;;;;;3.39;100.00;101643.97;5068802;28;20482;-69
2023/04/02 06:34:37;;;;;;;24.15;13.65;;;;;;;3.39;100.00;101659.66;5069182;28;20017;-71
2023/04/02 06:37:35;;;;;;;23.92;13.10;;;;;;;3.46;100.00;101660.00;5072165;28;20024;-71
2023/04/02 06:40:02;;;;;;;24.02;12.60;;;;;;;3.45;100.00;101659.94;5068382;28;20028;-70
2023/04/02 06:42:33;;;;;;;23.73;12.27;;;;;;;3.48;100.00;101666.22;5072097;28;20129;-70
2023/04/02 06:44:59;;;;;;;22.38;11.63;;;;;;;3.48;100.00;101666.22;5072022;28;20029;-70
2023/04/02 06:47:41;;;;;;;22.40;11.55;;;;;;;3.53;100.00;101681.22;5072245;28;20070;-70
2023/04/02 06:50:15;;;;;;;21.48;10.30;;;;;;;3.54;100.00;101685.59;5072855;28;20081;-69
2023/04/02 06:53:08;;;;;;;22.55;10.45;;;;;;;3.53;100.00;101689.06;5075840;28;20032;-69
2023/04/02 06:56:18;;;;;;;22.75;11.13;;;;;;;3.58;100.00;101695.38;5072416;28;20028;-69
2023/04/02 06:58:43;;;;;;;22.08;10.45;;;;;;;3.74;100.00;101702.22;5013910;28;20029;-69
2023/04/02 07:01:16;;;;;;;21.25;9.82;;;;;;;3.92;100.00;101712.66;5014082;28;20544;-71
2023/04/02 07:03:42;;;;;;;21.48;9.77;;;;;;;3.95;100.00;101712.78;5034220;28;20043;-70
2023/04/02 07:06:16;;;;;;;20.65;9.20;;;;;;;3.97;100.00;101718.97;5075562;28;20428;-70
2023/04/02 07:08:42;;;;;;;20.98;9.30;;;;;;;4.06;100.00;101724.59;5075471;28;20029;-69
2023/04/02 07:11:13;;;;;;;22.55;9.70;;;;;;;4.10;100.00;101736.13;5075772;28;20074;-72
2023/04/02 07:13:38;;;;;;;20.20;8.30;;;;;;;4.11;100.00;101744.03;5075517;28;20017;-71
2023/04/02 07:16:04;;;;;;;19.65;7.93;;;;;;;4.16;100.00;101746.84;5075488;28;20108;-73
2023/04/02 07:18:32;;;;;;;20.45;7.40;;;;;;;4.13;100.00;101751.97;5075641;28;20054;-72
2023/04/02 07:20:58;;;;;;;20.70;7.68;;;;;;;4.07;100.00;101754.31;5075329;28;20491;-72
2023/04/02 07:23:24;;;;;;;20.85;7.30;;;;;;;4.04;100.00;101759.41;5075342;28;20036;-72
2023/04/02 07:25:54;;;;;;;19.92;7.20;;;;;;;4.09;100.00;101765.72;5075387;28;20044;-72
2023/04/02 07:28:19;;;;;;;20.13;6.85;;;;;;;4.08;100.00;101774.41;5075268;28;20099;-71
2023/04/02 07:30:45;;;;;;;19.85;6.60;;;;;;;4.02;100.00;101769.81;5074996;28;20131;-71
2023/04/02 07:33:15;;;;;;;18.52;6.53;;;;;;;3.95;100.00;101781.69;5075341;28;20399;-72
2023/04/02 07:35:41;;;;;;;19.17;6.47;;;;;;;3.95;100.00;101786.03;5075178;28;20437;-72
2023/04/02 07:38:07;;;;;;;18.67;6.15;;;;;;;3.89;100.00;101801.44;5075069;28;20020;-72
2023/04/02 07:40:32;;;;;;;18.92;6.40;;;;;;;3.82;100.00;101803.78;5075465;28;20039;-72
2023/04/02 07:42:57;;;;;;;19.40;6.30;;;;;;;3.82;100.00;101795.91;5073679;28;20027;-71
2023/04/02 07:45:23;;;;;;;19.60;6.00;;;;;;;3.86;100.00;101793.44;5074819;28;20379;-72
2023/04/02 07:47:48;;;;;;;17.70;5.75;;;;;;;3.95;100.00;101793.91;5075182;28;20032;-72
2023/04/02 07:50:14;;;;;;;18.10;5.72;;;;;;;4.06;100.00;101803.09;5075049;28;20527;-70
2023/04/02 07:52:43;;;;;;;17.80;5.93;;;;;;;4.07;100.00;101804.91;5074756;28;20032;-70
2023/04/02 07:55:11;;;;;;;18.08;5.88;;;;;;;4.13;100.00;101812.16;5075094;28;20039;-69
2023/04/02 07:57:47;;;;;;;17.98;5.82;;;;;;;4.16;100.00;101809.69;5074637;28;20017;-69
2023/04/02 08:00:13;;;;;;;16.90;5.43;;;;;;;4.26;100.00;101821.47;5074659;28;20067;-72
2023/04/02 08:02:39;;;;;;;16.98;5.43;;;;;;;4.28;100.00;101819.81;5074737;28;20028;-69
2023/04/02 08:05:05;;;;;;;17.88;5.20;;;;;;;4.31;100.00;101828.72;5074624;28;20094;-69
2023/04/02 08:07:30;;;;;;;17.02;5.10;;;;;;;4.32;100.00;101833.09;5074452;28;20032;-69
2023/04/02 08:09:56;;;;;;;17.98;5.20;;;;;;;4.39;100.00;101839.53;5074638;28;20436;-71
2023/04/02 08:12:21;;;;;;;16.83;5.13;;;;;;;4.40;100.00;101838.69;5074389;28;20112;-69
2023/04/02 08:14:47;;;;;;;18.42;5.20;;;;;;;4.47;100.00;101843.41;5074250;28;20024;-71
2023/04/02 08:17:12;;;;;;;16.02;4.78;;;;;;;4.49;100.00;101846.09;5074572;28;20087;-68
2023/04/02 08:19:38;;;;;;;17.15;4.95;;;;;;;4.58;100.00;101853.47;5074008;28;20047;-71
2023/04/02 08:22:03;;;;;;;17.83;4.90;;;;;;;4.72;100.00;101849.72;5074217;28;20082;-68
2023/04/02 08:24:29;;;;;;;16.13;4.90;;;;;;;4.74;100.00;101860.28;5074412;28;20426;-68
2023/04/02 08:26:55;;;;;;;16.02;5.03;;;;;;;4.85;100.00;101865.16;5073979;28;20047;-68
2023/04/02 08:29:21;;;;;;;15.80;4.53;;;;;;;4.91;100.00;101869.78;5072813;28;20087;-69
2023/04/02 08:31:46;;;;;;;15.20;4.80;;;;;;;4.96;100.00;101867.34;5073031;28;20497;-68
2023/04/02 08:34:12;;;;;;;15.10;4.47;;;;;;;4.92;100.00;101879.41;5073989;28;20099;-69
2023/04/02 08:36:40;;;;;;;15.25;4.22;;;;;;;4.94;100.00;101887.38;5073928;28;20029;-71
2023/04/02 08:39:10;;;;;;;17.95;4.88;;;;;;;5.01;100.00;101898.16;5074093;28;20085;-71
2023/04/02 08:42:14;;;;;;;17.95;4.85;;;;;;;5.09;100.00;101892.38;5070326;28;20057;-71
2023/04/02 08:44:54;;;;;;;16.92;5.00;;;;;;;5.04;100.00;101905.28;5070946;28;20415;-72
2023/04/02 08:47:24;;;;;;;15.00;4.20;;;;;;;4.95;100.00;101915.34;5073842;28;20555;-72
2023/04/02 08:49:54;;;;;;;18.10;4.78;;;;;;;5.07;100.00;101914.16;5073711;28;20032;-71
2023/04/02 08:52:24;;;;;;;14.75;4.30;;;;;;;5.20;100.00;101922.56;5073611;28;20060;-72
2023/04/02 08:54:50;;;;;;;15.70;4.40;;;;;;;5.16;100.00;101924.16;5073878;28;20441;-71
2023/04/02 08:57:18;;;;;;;13.68;4.25;;;;;;;5.15;100.00;101935.47;5073532;28;20025;-71
2023/04/02 08:59:44;;;;;;;16.40;4.30;;;;;;;5.21;100.00;101937.44;5073347;28;20033;-71
2023/04/02 09:02:31;;;;;;;14.63;4.18;;;;;;;5.25;100.00;101947.25;5073622;28;20043;-71
2023/04/02 09:05:00;;;;;;;15.00;4.07;;;;;;;5.22;100.00;101948.00;5073474;28;20029;-71
2023/04/02 09:07:27;;;;;;;15.00;4.18;;;;;;;5.17;100.00;101948.63;5073290;28;20115;-72
2023/04/02 09:09:52;;;;;;;14.18;4.18;;;;;;;5.23;100.00;101960.28;5073174;28;20029;-72
2023/04/02 09:12:23;;;;;;;14.48;3.95;;;;;;;5.29;100.00;101962.28;5072931;28;20089;-72
2023/04/02 09:15:09;;;;;;;14.30;4.10;;;;;;;5.32;100.00;101970.28;5073261;28;20475;-71
2023/04/02 09:17:36;;;;;;;16.17;4.00;;;;;;;5.32;100.00;101969.41;5069704;28;20025;-71
2023/04/02 09:20:16;;;;;;;12.90;3.78;;;;;;;5.36;100.00;101968.72;5073298;28;20375;-71
2023/04/02 09:22:44;;;;;;;13.90;3.97;;;;;;;5.40;100.00;101975.84;5070307;28;20158;-68
2023/04/02 09:25:42;;;;;;;13.30;3.75;;;;;;;5.49;100.00;101978.91;5073180;28;20035;-68
2023/04/02 09:28:10;;;;;;;13.55;3.88;;;;;;;5.39;100.00;101990.72;5056920;28;20391;-69
2023/04/02 09:30:41;;;;;;;14.95;3.80;;;;;;;5.36;100.00;101992.31;5073164;28;20458;-68
2023/04/02 09:33:07;;;;;;;12.70;3.83;;;;;;;5.29;100.00;102001.63;5069434;28;20368;-68
2023/04/02 09:35:56;;;;;;;14.63;3.92;;;;;;;5.32;100.00;102000.88;5067694;28;20537;-68
2023/04/02 09:38:31;;;;;;;15.50;4.10;;;;;;;5.34;100.00;102004.44;5060594;28;20044;-68
2023/04/02 09:40:58;;;;;;;14.60;4.00;;;;;;;5.24;100.00;102004.03;5072829;28;20036;-69
2023/04/02 09:43:29;;;;;;;15.73;4.13;;;;;;;5.28;100.00;102017.28;5073019;28;20039;-69
2023/04/02 09:46:00;;;;;;;16.02;4.60;;;;;;;5.31;100.00;102017.44;5072695;28;20036;-68
2023/04/02 09:48:39;;;;;;;14.73;4.20;;;;;;;5.40;100.00;102020.44;5072654;28;20029;-68
2023/04/02 09:51:11;;;;;;;14.43;4.50;;;;;;;5.42;100.00;102024.03;5069078;28;20028;-69
2023/04/02 09:54:02;;;;;;;14.80;4.07;;;;;;;5.58;100.00;102031.75;5068001;28;20024;-69
2023/04/02 09:56:33;;;;;;;16.27;4.65;;;;;;;5.64;100.00;102041.63;5060153;28;20531;-68
2023/04/02 09:59:20;;;;;;;14.70;4.00;;;;;;;5.58;100.00;102047.50;5072810;28;20020;-68
2023/04/02 10:01:54;;;;;;;16.17;4.40;;;;;;;5.65;100.00;102046.03;5070562;28;20067;-68
2023/04/02 10:04:46;;;;;;;16.30;4.57;;;;;;;5.65;100.00;102047.75;5072729;28;20036;-68
2023/04/02 10:07:35;;;;;;;16.77;4.70;;;;;;;5.62;100.00;102048.53;5069785;28;20116;-68
2023/04/02 10:10:16;;;;;;;14.73;4.28;;;;;;;5.41;100.00;102053.72;5071412;28;20423;-69
2023/04/02 10:12:44;;;;;;;15.70;4.57;;;;;;;5.41;100.00;102053.72;5068580;28;20025;-68
2023/04/02 10:15:20;;;;;;;16.08;4.35;;;;;;;5.51;100.00;102053.28;5072247;28;20483;-68
2023/04/02 10:17:56;;;;;;;15.77;4.68;;;;;;;5.50;100.00;102053.22;5072390;28;20031;-68
2023/04/02 10:20:26;;;;;;;13.52;4.13;;;;;;;5.48;100.00;102066.28;5072251;28;20033;-69
2023/04/02 10:22:51;;;;;;;15.05;4.13;;;;;;;5.51;100.00;102066.41;5072921;28;20031;-68
2023/04/02 10:25:20;;;;;;;14.15;4.25;;;;;;;5.72;100.00;102073.44;5076383;28;20495;-69
2023/04/02 10:27:59;;;;;;;14.05;3.92;;;;;;;5.88;100.00;102077.63;5076178;28;20448;-68
2023/04/02 10:30:53;;;;;;;13.30;4.20;;;;;;;5.83;100.00;102077.44;5076181;28;20050;-68
2023/04/02 10:33:23;;;;;;;;;;;;;;;6.08;100.00;102076.78;5074760;28;20498;-68
2023/04/02 10:36:29;;;;;;;14.07;4.03;;;;;;;5.90;100.00;102083.84;5076269;28;19913;-69
2023/04/02 10:39:08;;;;;;;16.73;4.05;;;;;;;5.87;100.00;102094.22;5069530;28;20054;-68
2023/04/02 10:41:38;;;;;;;16.50;4.22;;;;;;;5.98;100.00;102105.22;5072252;28;20017;-68
2023/04/02 10:44:31;;;;;;;14.30;4.20;;;;;;;6.13;100.00;102107.59;5072030;28;20557;-69
2023/04/02 10:47:06;;;;;;;;;;;;;;;6.17;100.00;102115.66;5075478;28;20166;-69
2023/04/02 10:49:44;;;;;;;15.25;4.07;;;;;;;5.90;100.00;102116.22;5075878;28;19916;-68
2023/04/02 10:52:20;;;;;;;14.65;4.32;;;;;;;6.06;100.00;102112.59;5073084;28;20039;-68
2023/04/02 10:54:52;;;;;;;14.98;4.38;;;;;;;6.10;100.00;102113.59;5075844;28;20031;-70
2023/04/02 10:57:51;;;;;;;15.65;4.57;;;;;;;6.08;100.00;102110.91;5075837;28;20383;-68
2023/04/02 11:00:33;;;;;;;13.68;4.28;;;;;;;6.14;100.00;102120.78;5062924;28;20044;-69
2023/04/02 11:03:12;;;;;;;14.98;4.40;;;;;;;6.27;100.00;102114.31;5076017;28;20021;-68
2023/04/02 11:05:49;;;;;;;15.35;4.63;;;;;;;6.49;100.00;102118.72;5072095;28;20467;-68
2023/04/02 11:08:30;;;;;;;14.88;4.30;;;;;;;6.74;100.00;102133.78;5073123;28;20016;-68
2023/04/02 11:11:02;;;;;;;13.68;4.22;;;;;;;6.76;100.00;102132.13;5075530;28;20036;-68
2023/04/02 11:13:34;;;;;;;14.20;4.00;;;;;;;6.76;100.00;102142.63;5075520;28;20085;-72
2023/04/02 11:15:59;;;;;;;11.40;4.00;;;;;;;6.92;100.00;102148.50;5075956;28;20275;-70
2023/04/02 11:18:37;;;;;;;14.77;4.10;;;;;;;6.88;100.00;102150.09;5075488;28;20115;-72
2023/04/02 11:21:38;;;;;;;13.60;3.90;;;;;;;7.04;100.00;102153.38;5074106;28;20043;-69
2023/04/02 11:24:04;;;;;;;14.20;4.20;;;;;;;7.13;100.00;102153.72;5070198;28;20433;-71
2023/04/02 11:26:39;;;;;;;14.45;4.22;;;;;;;7.23;100.00;102163.75;5075041;28;20040;-70
2023/04/02 11:29:05;;;;;;;14.93;4.20;;;;;;;7.24;100.00;102164.69;5071052;28;20044;-70
2023/04/02 11:31:30;;;;;;;14.25;4.20;;;;;;;7.34;100.00;102169.44;5074283;28;20545;-71
2023/04/02 11:33:55;;;;;;;16.20;4.47;;;;;;;7.28;100.00;102179.72;5073925;28;20028;-70
2023/04/02 11:36:49;;;;;;;13.57;3.85;;;;;;;7.25;100.00;102175.25;5073881;28;20090;-69
2023/04/02 11:39:52;;;;;;;15.70;3.97;;;;;;;7.30;100.00;102176.31;5071324;28;20040;-69
2023/04/02 11:42:17;;;;;;;13.25;3.83;;;;;;;7.40;100.00;102174.06;5071643;28;20017;-69
2023/04/02 11:44:43;;;;;;;13.18;3.90;;;;;;;7.46;100.00;102177.81;5073887;28;20099;-70